createdAt,value
2022-09-27T00:00:46.912Z,10.90
2022-09-27T00:03:15.054Z,10.80
2022-09-27T00:05:42.894Z,10.90
2022-09-27T00:08:12.058Z,10.90
2022-09-27T00:10:39.891Z,10.90
2022-09-27T00:13:07.796Z,10.90
2022-09-27T00:15:35.656Z,10.90
2022-09-27T00:18:03.700Z,10.80
2022-09-27T00:20:31.526Z,10.90
2022-09-27T00:22:59.410Z,10.80
2022-09-27T00:25:28.611Z,10.90
2022-09-27T00:27:56.427Z,10.80
2022-09-27T00:30:24.267Z,10.70
2022-09-27T00:32:52.920Z,10.70
2022-09-27T00:35:20.741Z,10.70
2022-09-27T00:37:49.428Z,10.80
2022-09-27T00:40:19.797Z,10.80
2022-09-27T00:42:49.881Z,10.70
2022-09-27T00:45:18.788Z,10.70
2022-09-27T00:47:55.951Z,10.70
2022-09-27T00:50:28.941Z,10.70
2022-09-27T00:53:05.397Z,10.70
2022-09-27T00:55:36.987Z,10.70
2022-09-27T00:58:07.155Z,10.70
2022-09-27T01:00:35.351Z,10.60
2022-09-27T01:03:07.042Z,10.60
2022-09-27T01:05:35.268Z,10.60
2022-09-27T01:08:03.961Z,10.60
2022-09-27T01:10:39.077Z,10.60
2022-09-27T01:13:14.389Z,10.60
2022-09-27T01:15:49.283Z,10.60
2022-09-27T01:18:31.438Z,10.60
2022-09-27T01:21:47.095Z,10.60
2022-09-27T01:24:47.442Z,10.60
2022-09-27T01:27:50.094Z,10.70
2022-09-27T01:30:22.143Z,10.70
2022-09-27T01:32:56.044Z,10.70
2022-09-27T01:35:32.995Z,10.70
2022-09-27T01:38:12.207Z,10.70
2022-09-27T01:40:45.691Z,10.70
2022-09-27T01:43:18.521Z,10.70
2022-09-27T01:45:52.721Z,10.70
2022-09-27T01:48:23.711Z,10.70
2022-09-27T01:50:54.855Z,10.70
2022-09-27T01:53:26.183Z,10.60
2022-09-27T01:55:56.050Z,10.60
2022-09-27T01:58:30.059Z,10.60
2022-09-27T02:01:01.809Z,10.60
2022-09-27T02:03:34.901Z,10.60
2022-09-27T02:06:06.352Z,10.60
2022-09-27T02:08:40.034Z,10.60
2022-09-27T02:11:12.781Z,10.60
2022-09-27T02:13:47.443Z,10.60
2022-09-27T02:16:26.226Z,10.60
2022-09-27T02:19:03.075Z,10.60
2022-09-27T02:21:39.677Z,10.60
2022-09-27T02:24:11.638Z,10.60
2022-09-27T02:26:43.911Z,10.50
2022-09-27T02:29:15.955Z,10.50
2022-09-27T02:31:45.298Z,10.50
2022-09-27T02:34:17.323Z,10.50
2022-09-27T02:36:45.436Z,10.50
2022-09-27T02:39:13.355Z,10.50
2022-09-27T02:41:41.218Z,10.50
2022-09-27T02:44:13.126Z,10.60
2022-09-27T02:47:08.552Z,10.50
2022-09-27T02:49:50.779Z,10.50
2022-09-27T02:52:29.343Z,10.50
2022-09-27T02:55:08.056Z,10.50
2022-09-27T02:57:46.089Z,10.50
2022-09-27T03:00:18.046Z,10.50
2022-09-27T03:02:57.148Z,10.50
2022-09-27T03:05:28.929Z,10.50
2022-09-27T03:07:57.035Z,10.50
2022-09-27T03:10:27.654Z,10.40
2022-09-27T03:12:56.705Z,10.40
2022-09-27T03:15:24.545Z,10.40
2022-09-27T03:17:53.710Z,10.50
2022-09-27T03:20:21.535Z,10.50
2022-09-27T03:22:49.526Z,10.50
2022-09-27T03:25:17.493Z,10.50
2022-09-27T03:27:45.332Z,10.40
2022-09-27T03:30:15.467Z,10.40
2022-09-27T03:32:44.499Z,10.40
2022-09-27T03:35:14.495Z,10.50
2022-09-27T03:37:42.696Z,10.40
2022-09-27T03:40:13.634Z,10.40
2022-09-27T03:42:44.055Z,10.40
2022-09-27T03:45:14.462Z,10.40
2022-09-27T03:47:42.530Z,10.50
2022-09-27T03:50:12.351Z,10.40
2022-09-27T03:52:43.588Z,10.50
2022-09-27T03:55:12.318Z,10.50
2022-09-27T03:57:40.582Z,10.40
2022-09-27T04:00:09.948Z,10.30
2022-09-27T04:02:37.849Z,10.30
2022-09-27T04:05:06.653Z,10.30
2022-09-27T04:07:34.561Z,10.20
2022-09-27T04:10:04.169Z,10.20
2022-09-27T04:12:32.998Z,10.20
2022-09-27T04:15:01.577Z,10.20
2022-09-27T04:17:29.442Z,10.30
2022-09-27T04:19:57.506Z,10.30
2022-09-27T04:22:25.592Z,10.30
2022-09-27T04:24:53.418Z,10.30
2022-09-27T04:27:22.758Z,10.30
2022-09-27T04:29:50.671Z,10.20
2022-09-27T04:32:18.605Z,10.20
2022-09-27T04:35:00.353Z,10.20
2022-09-27T04:37:29.886Z,10.10
2022-09-27T04:39:58.040Z,10.20
2022-09-27T04:42:28.791Z,10.20
2022-09-27T04:44:56.738Z,10.20
2022-09-27T04:47:24.637Z,10.20
2022-09-27T04:49:52.494Z,10.20
2022-09-27T04:52:20.323Z,10.20
2022-09-27T04:54:48.144Z,10.10
2022-09-27T04:57:16.594Z,10.10
2022-09-27T04:59:45.795Z,10.10
2022-09-27T05:02:13.785Z,10.10
2022-09-27T05:04:41.704Z,10.10
2022-09-27T05:07:09.531Z,10.10
2022-09-27T05:09:37.433Z,10.10
2022-09-27T05:12:07.736Z,10.10
2022-09-27T05:14:35.650Z,10.20
2022-09-27T05:17:04.989Z,10.20
2022-09-27T05:19:32.962Z,10.20
2022-09-27T05:22:00.799Z,10.20
2022-09-27T05:24:28.906Z,10.20
2022-09-27T05:26:57.050Z,10.20
2022-09-27T05:29:25.367Z,10.20
2022-09-27T05:31:53.249Z,10.10
2022-09-27T05:34:22.473Z,10.10
2022-09-27T05:36:50.378Z,10.10
2022-09-27T05:39:18.651Z,10.10
2022-09-27T05:41:47.724Z,10.10
2022-09-27T05:44:15.798Z,10.10
2022-09-27T05:46:43.730Z,10.10
2022-09-27T05:49:11.601Z,10.00
2022-09-27T05:51:41.114Z,10.00
2022-09-27T05:54:09.016Z,9.90
2022-09-27T05:56:36.938Z,10.00
2022-09-27T05:59:05.007Z,9.90
2022-09-27T06:01:32.892Z,10.00
2022-09-27T06:04:00.747Z,10.00
2022-09-27T06:06:28.569Z,10.00
2022-09-27T06:08:57.781Z,9.90
2022-09-27T06:11:27.494Z,10.00
2022-09-27T06:13:55.659Z,9.90
2022-09-27T06:16:23.528Z,9.90
2022-09-27T06:18:52.207Z,10.00
2022-09-27T06:21:20.211Z,9.90
2022-09-27T06:23:52.061Z,9.90
2022-09-27T06:26:24.279Z,9.80
2022-09-27T06:28:52.158Z,9.90
2022-09-27T06:31:20.521Z,9.90
2022-09-27T06:33:56.337Z,9.90
2022-09-27T06:36:24.179Z,10.00
2022-09-27T06:38:52.011Z,10.10
2022-09-27T06:41:19.883Z,10.10
2022-09-27T06:43:51.012Z,10.20
2022-09-27T06:46:19.039Z,10.20
2022-09-27T06:48:47.283Z,10.10
2022-09-27T06:51:15.398Z,10.20
2022-09-27T06:53:43.297Z,10.20
2022-09-27T06:56:11.170Z,10.20
2022-09-27T06:58:56.694Z,10.30
2022-09-27T07:01:30.446Z,10.40
2022-09-27T07:03:58.767Z,10.40
2022-09-27T07:06:27.038Z,10.50
2022-09-27T07:08:55.416Z,10.50
2022-09-27T07:11:23.841Z,10.60
2022-09-27T07:13:52.092Z,10.60
2022-09-27T07:16:20.281Z,10.60
2022-09-27T07:18:51.474Z,10.70
2022-09-27T07:21:19.843Z,10.80
2022-09-27T07:23:47.682Z,10.90
2022-09-27T07:26:15.576Z,10.80
2022-09-27T07:28:44.992Z,10.80
2022-09-27T07:31:13.674Z,10.90
2022-09-27T07:33:43.420Z,10.90
2022-09-27T07:36:14.586Z,10.90
2022-09-27T07:38:42.552Z,11.10
2022-09-27T07:41:13.918Z,11.10
2022-09-27T07:43:42.128Z,11.10
2022-09-27T07:46:11.070Z,11.20
2022-09-27T07:48:39.054Z,11.20
2022-09-27T07:51:08.418Z,11.30
2022-09-27T07:53:37.743Z,11.40
2022-09-27T07:56:05.799Z,11.60
2022-09-27T07:58:33.694Z,11.80
2022-09-27T08:01:02.428Z,12.10
2022-09-27T08:03:31.572Z,12.40
2022-09-27T08:06:04.057Z,12.30
2022-09-27T08:08:31.875Z,12.00
2022-09-27T08:11:01.065Z,11.40
2022-09-27T08:13:29.519Z,10.70
2022-09-27T08:16:02.716Z,10.40
2022-09-27T08:18:30.558Z,10.10
2022-09-27T08:20:58.727Z,10.00
2022-09-27T08:23:26.718Z,9.90
2022-09-27T08:25:57.278Z,10.00
2022-09-27T08:28:27.235Z,10.00
2022-09-27T08:30:55.265Z,10.10
2022-09-27T08:33:29.871Z,10.10
2022-09-27T08:35:59.972Z,9.90
2022-09-27T08:38:28.050Z,10.00
2022-09-27T08:40:58.141Z,9.90
2022-09-27T08:43:37.672Z,9.90
2022-09-27T08:46:26.221Z,10.10
2022-09-27T08:48:59.843Z,10.00
2022-09-27T08:51:31.002Z,10.30
2022-09-27T08:54:06.776Z,10.70
2022-09-27T08:56:35.435Z,10.90
2022-09-27T08:59:13.449Z,11.10
2022-09-27T09:01:42.214Z,11.20
2022-09-27T09:04:12.057Z,11.10
2022-09-27T09:06:49.641Z,10.90
2022-09-27T09:09:31.099Z,10.80
2022-09-27T09:12:23.743Z,10.80
2022-09-27T09:15:19.134Z,10.70
2022-09-27T09:18:20.499Z,10.80
2022-09-27T09:20:59.558Z,10.80
2022-09-27T09:23:51.154Z,11.10
2022-09-27T09:26:27.159Z,11.30
2022-09-27T09:29:08.182Z,11.50
2022-09-27T09:31:43.755Z,11.70
2022-09-27T09:34:18.305Z,12.00
2022-09-27T09:36:51.374Z,12.20
2022-09-27T09:39:24.563Z,12.10
2022-09-27T09:42:06.207Z,12.20
2022-09-27T09:44:42.246Z,12.20
2022-09-27T09:47:20.131Z,11.90
2022-09-27T09:49:52.287Z,11.90
2022-09-27T09:52:22.939Z,11.60
2022-09-27T09:54:54.597Z,11.50
2022-09-27T09:57:28.455Z,11.40
2022-09-27T10:00:01.192Z,11.50
2022-09-27T10:02:35.965Z,11.60
2022-09-27T10:05:07.822Z,11.70
2022-09-27T10:07:38.923Z,11.60
2022-09-27T10:10:09.651Z,11.50
2022-09-27T10:12:37.570Z,11.40
2022-09-27T10:15:07.923Z,11.60
2022-09-27T10:17:42.463Z,11.50
2022-09-27T10:20:24.897Z,11.60
2022-09-27T10:22:56.598Z,11.70
2022-09-27T10:25:24.487Z,11.80
2022-09-27T10:27:55.724Z,11.80
2022-09-27T10:30:31.839Z,11.90
2022-09-27T10:33:05.395Z,11.80
2022-09-27T10:35:36.844Z,11.80
2022-09-27T10:38:24.915Z,11.80
2022-09-27T10:40:55.548Z,11.70
2022-09-27T10:43:29.980Z,11.40
2022-09-27T10:46:21.016Z,11.20
2022-09-27T10:49:08.743Z,11.10
2022-09-27T10:51:37.720Z,11.00
2022-09-27T10:54:06.589Z,11.00
2022-09-27T10:56:36.356Z,11.00
2022-09-27T10:59:05.344Z,11.00
2022-09-27T11:01:45.269Z,11.10
2022-09-27T11:04:22.204Z,11.30
2022-09-27T11:06:50.529Z,11.70
2022-09-27T11:09:24.104Z,12.10
2022-09-27T11:11:52.234Z,12.30
2022-09-27T11:14:25.214Z,12.40
2022-09-27T11:17:08.183Z,12.50
2022-09-27T11:19:59.816Z,12.50
2022-09-27T11:22:51.568Z,12.40
2022-09-27T11:25:32.213Z,11.90
2022-09-27T11:28:10.111Z,11.60
2022-09-27T11:30:46.943Z,11.40
2022-09-27T11:33:36.083Z,11.20
2022-09-27T11:36:13.795Z,11.30
2022-09-27T11:38:57.178Z,11.20
2022-09-27T11:41:51.223Z,11.20
2022-09-27T11:44:43.043Z,10.90
2022-09-27T11:47:18.933Z,10.80
2022-09-27T11:50:13.212Z,10.80
2022-09-27T11:52:56.958Z,11.00
2022-09-27T11:55:34.029Z,11.20
2022-09-27T11:58:09.376Z,11.40
2022-09-27T12:00:52.958Z,11.40
2022-09-27T12:03:54.582Z,11.10
2022-09-27T12:06:26.755Z,11.00
2022-09-27T12:09:04.199Z,10.90
2022-09-27T12:11:39.703Z,10.60
2022-09-27T12:14:13.440Z,10.40
2022-09-27T12:16:43.104Z,10.10
2022-09-27T12:19:19.139Z,9.90
2022-09-27T12:21:47.873Z,9.80
2022-09-27T12:24:21.727Z,9.70
2022-09-27T12:26:54.665Z,9.80
2022-09-27T12:29:27.713Z,10.00
2022-09-27T12:32:03.111Z,10.20
2022-09-27T12:34:39.341Z,10.40
2022-09-27T12:37:13.847Z,10.60
2022-09-27T12:39:51.654Z,11.00
2022-09-27T12:42:24.324Z,11.20
2022-09-27T12:44:53.571Z,11.20
2022-09-27T12:47:47.031Z,11.20
2022-09-27T12:50:23.782Z,11.10
2022-09-27T12:52:56.211Z,11.20
2022-09-27T12:55:58.291Z,11.20
2022-09-27T12:58:56.561Z,11.30
2022-09-27T13:01:41.072Z,11.40
2022-09-27T13:04:28.226Z,11.40
2022-09-27T13:07:27.302Z,11.30
2022-09-27T13:10:17.354Z,11.20
2022-09-27T13:12:53.325Z,11.10
2022-09-27T13:15:27.656Z,11.30
2022-09-27T13:17:56.770Z,11.40
2022-09-27T13:20:42.462Z,11.30
2022-09-27T13:23:58.914Z,11.40
2022-09-27T13:26:48.390Z,11.40
2022-09-27T13:29:29.747Z,11.20
2022-09-27T13:32:20.318Z,11.20
2022-09-27T13:34:51.100Z,11.10
2022-09-27T13:37:38.256Z,11.30
2022-09-27T13:40:29.411Z,11.30
2022-09-27T13:43:17.926Z,11.40
2022-09-27T13:45:55.349Z,11.60
2022-09-27T13:48:28.153Z,11.60
2022-09-27T13:51:02.319Z,11.50
2022-09-27T13:53:34.166Z,11.50
2022-09-27T13:56:02.824Z,11.30
2022-09-27T13:58:42.734Z,11.20
2022-09-27T14:01:23.038Z,11.10
2022-09-27T14:03:56.650Z,11.00
2022-09-27T14:06:28.835Z,11.10
2022-09-27T14:08:59.760Z,11.10
2022-09-27T14:11:30.239Z,11.20
2022-09-27T14:13:59.355Z,11.30
2022-09-27T14:16:31.849Z,11.30
2022-09-27T14:19:00.482Z,11.10
2022-09-27T14:21:32.236Z,11.20
2022-09-27T14:24:26.348Z,11.30
2022-09-27T14:27:07.967Z,11.60
2022-09-27T14:29:41.971Z,11.80
2022-09-27T14:32:14.220Z,11.80
2022-09-27T14:34:42.190Z,11.90
2022-09-27T14:37:30.954Z,11.80
2022-09-27T14:40:02.952Z,11.40
2022-09-27T14:42:36.273Z,11.30
2022-09-27T14:45:22.097Z,11.30
2022-09-27T14:47:52.883Z,11.10
2022-09-27T14:50:24.336Z,11.10
2022-09-27T14:52:55.450Z,11.10
2022-09-27T14:55:24.744Z,11.20
2022-09-27T14:57:55.537Z,11.10
2022-09-27T15:00:26.112Z,11.20
2022-09-27T15:02:58.067Z,11.10
2022-09-27T15:05:28.651Z,11.20
2022-09-27T15:07:58.371Z,11.20
2022-09-27T15:10:31.169Z,11.20
2022-09-27T15:13:01.335Z,11.30
2022-09-27T15:15:32.175Z,11.30
2022-09-27T15:18:02.420Z,11.30
2022-09-27T15:20:34.905Z,11.20
2022-09-27T15:23:04.462Z,11.10
2022-09-27T15:25:35.308Z,11.10
2022-09-27T15:28:06.165Z,11.00
2022-09-27T15:30:38.988Z,11.00
2022-09-27T15:33:19.667Z,11.00
2022-09-27T15:35:52.326Z,11.10
2022-09-27T15:38:31.464Z,10.90
2022-09-27T15:41:06.361Z,11.20
2022-09-27T15:43:37.137Z,11.20
2022-09-27T15:46:07.632Z,11.10
2022-09-27T15:48:37.604Z,11.20
2022-09-27T15:51:39.131Z,11.20
2022-09-27T15:54:08.310Z,11.20
2022-09-27T15:56:36.554Z,11.10
2022-09-27T15:59:04.754Z,10.90
2022-09-27T16:01:32.616Z,10.70
2022-09-27T16:04:00.998Z,10.70
2022-09-27T16:06:30.134Z,10.60
2022-09-27T16:08:57.928Z,10.10
2022-09-27T16:11:27.036Z,9.70
2022-09-27T16:13:55.064Z,9.50
2022-09-27T16:16:23.741Z,9.40
2022-09-27T16:18:51.573Z,9.40
2022-09-27T16:21:19.326Z,9.30
2022-09-27T16:23:47.130Z,9.30
2022-09-27T16:26:14.935Z,9.20
2022-09-27T16:28:44.032Z,9.20
2022-09-27T16:31:12.669Z,9.10
2022-09-27T16:33:40.487Z,9.10
2022-09-27T16:36:14.361Z,9.10
2022-09-27T16:38:42.435Z,9.10
2022-09-27T16:41:10.270Z,9.10
2022-09-27T16:43:38.467Z,9.10
2022-09-27T16:46:11.769Z,9.10
2022-09-27T16:48:40.480Z,9.20
2022-09-27T16:51:29.953Z,9.20
2022-09-27T16:53:57.895Z,9.30
2022-09-27T16:56:27.956Z,9.30
2022-09-27T16:58:56.043Z,9.20
2022-09-27T17:01:25.287Z,9.20
2022-09-27T17:03:57.315Z,9.30
2022-09-27T17:06:25.616Z,9.20
2022-09-27T17:08:53.398Z,9.20
2022-09-27T17:11:21.671Z,9.20
2022-09-27T17:13:50.116Z,9.30
2022-09-27T17:16:18.058Z,9.30
2022-09-27T17:18:47.200Z,9.30
2022-09-27T17:21:15.224Z,9.20
2022-09-27T17:23:43.526Z,9.30
2022-09-27T17:26:17.819Z,9.30
2022-09-27T17:28:46.216Z,9.20
2022-09-27T17:31:17.470Z,9.30
2022-09-27T17:33:48.439Z,9.30
2022-09-27T17:36:20.961Z,9.40
2022-09-27T17:38:52.858Z,9.30
2022-09-27T17:41:24.088Z,9.30
2022-09-27T17:43:55.419Z,9.20
2022-09-27T17:46:26.251Z,9.20
2022-09-27T17:49:15.812Z,9.20
2022-09-27T17:51:46.962Z,9.20
2022-09-27T17:54:16.587Z,9.10
2022-09-27T17:56:45.222Z,9.10
2022-09-27T17:59:15.832Z,9.10
2022-09-27T18:01:45.092Z,9.10
2022-09-27T18:04:16.430Z,9.10
2022-09-27T18:06:46.529Z,9.20
2022-09-27T18:09:16.605Z,9.20
2022-09-27T18:11:45.507Z,9.20
2022-09-27T18:14:13.628Z,9.30
2022-09-27T18:16:44.353Z,9.10
2022-09-27T18:19:15.459Z,9.10
2022-09-27T18:21:43.794Z,9.10
2022-09-27T18:24:14.674Z,9.00
2022-09-27T18:26:43.719Z,9.00
2022-09-27T18:29:14.270Z,9.00
2022-09-27T18:31:47.522Z,9.00
2022-09-27T18:34:18.490Z,9.00
2022-09-27T18:36:46.986Z,8.90
2022-09-27T18:39:18.177Z,8.90
2022-09-27T18:41:48.388Z,8.90
2022-09-27T18:44:17.083Z,8.80
2022-09-27T18:46:45.114Z,8.80
2022-09-27T18:49:14.740Z,8.90
2022-09-27T18:51:46.875Z,8.90
2022-09-27T18:54:16.570Z,8.80
2022-09-27T18:56:44.697Z,8.90
2022-09-27T18:59:13.269Z,8.90
2022-09-27T19:01:45.059Z,9.00
2022-09-27T19:04:15.461Z,8.90
2022-09-27T19:06:45.679Z,8.90
2022-09-27T19:09:13.806Z,9.00
2022-09-27T19:11:41.652Z,9.00
2022-09-27T19:14:15.507Z,9.00
2022-09-27T19:16:44.718Z,9.00
2022-09-27T19:19:12.605Z,9.00
2022-09-27T19:21:40.762Z,9.00
2022-09-27T19:24:09.871Z,9.00
2022-09-27T19:26:37.668Z,9.00
2022-09-27T19:29:06.366Z,8.90
2022-09-27T19:31:35.738Z,8.90
2022-09-27T19:34:03.852Z,9.00
2022-09-27T19:36:32.023Z,9.00
2022-09-27T19:39:01.988Z,9.00
2022-09-27T19:41:31.485Z,9.00
2022-09-27T19:43:59.312Z,9.00
2022-09-27T19:46:27.620Z,8.90
2022-09-27T19:48:56.013Z,8.90
2022-09-27T19:51:25.811Z,8.90
2022-09-27T19:53:54.969Z,8.90
2022-09-27T19:56:23.759Z,8.90
2022-09-27T19:58:53.553Z,9.00
2022-09-27T20:01:23.165Z,9.00
2022-09-27T20:03:53.209Z,9.00
2022-09-27T20:06:22.220Z,9.00
2022-09-27T20:08:50.742Z,9.00
2022-09-27T20:11:19.806Z,9.00
2022-09-27T20:13:48.879Z,9.00
2022-09-27T20:16:19.639Z,9.00
2022-09-27T20:18:48.807Z,9.00
2022-09-27T20:21:17.742Z,9.00
2022-09-27T20:23:48.878Z,9.10
2022-09-27T20:26:18.639Z,9.10
2022-09-27T20:28:48.333Z,9.10
2022-09-27T20:31:19.338Z,9.10
2022-09-27T20:33:49.615Z,9.10
2022-09-27T20:36:19.046Z,9.10
2022-09-27T20:38:48.274Z,9.10
2022-09-27T20:41:18.131Z,9.10
2022-09-27T20:43:46.893Z,9.10
2022-09-27T20:46:17.774Z,9.10
2022-09-27T20:48:47.014Z,9.10
2022-09-27T20:51:15.527Z,9.10
2022-09-27T20:53:44.539Z,9.00
2022-09-27T20:56:18.319Z,9.00
2022-09-27T20:58:46.759Z,8.90
2022-09-27T21:01:15.159Z,9.00
2022-09-27T21:03:44.583Z,9.10
2022-09-27T21:06:13.776Z,9.00
2022-09-27T21:08:41.859Z,9.00
2022-09-27T21:11:11.667Z,9.00
2022-09-27T21:13:41.027Z,9.10
2022-09-27T21:16:10.568Z,9.10
2022-09-27T21:18:39.102Z,9.00
2022-09-27T21:21:09.822Z,9.00
2022-09-27T21:23:44.105Z,9.00
2022-09-27T21:26:13.922Z,9.00
2022-09-27T21:28:42.835Z,8.90
2022-09-27T21:31:12.030Z,9.00
2022-09-27T21:33:41.036Z,8.90
2022-09-27T21:36:12.505Z,9.00
2022-09-27T21:38:40.446Z,9.00
2022-09-27T21:41:10.713Z,9.00
2022-09-27T21:43:40.252Z,8.90
2022-09-27T21:46:10.464Z,8.90
2022-09-27T21:48:39.718Z,8.90
2022-09-27T21:51:10.562Z,9.00
2022-09-27T21:53:40.143Z,8.90
2022-09-27T21:56:09.155Z,9.00
2022-09-27T21:58:39.045Z,8.90
2022-09-27T22:01:11.860Z,9.00
2022-09-27T22:03:42.211Z,8.90
2022-09-27T22:06:13.303Z,8.90
2022-09-27T22:08:41.386Z,8.70
2022-09-27T22:11:09.853Z,8.60
2022-09-27T22:13:37.789Z,8.50
2022-09-27T22:16:06.285Z,8.40
2022-09-27T22:18:37.188Z,8.40
2022-09-27T22:21:06.163Z,8.40
2022-09-27T22:23:36.023Z,8.40
2022-09-27T22:26:12.882Z,8.40
2022-09-27T22:28:41.169Z,8.40
2022-09-27T22:31:09.452Z,8.40
2022-09-27T22:33:37.296Z,8.40
2022-09-27T22:36:06.669Z,8.40
2022-09-27T22:38:36.093Z,8.40
2022-09-27T22:41:04.270Z,8.40
2022-09-27T22:43:32.759Z,8.40
2022-09-27T22:46:01.137Z,8.50
2022-09-27T22:48:30.582Z,8.40
2022-09-27T22:50:59.566Z,8.50
2022-09-27T22:53:29.148Z,8.50
2022-09-27T22:56:03.781Z,8.50
2022-09-27T22:58:32.609Z,8.40
2022-09-27T23:01:00.535Z,8.50
2022-09-27T23:03:28.423Z,8.50
2022-09-27T23:06:02.504Z,8.50
2022-09-27T23:08:30.314Z,8.50
2022-09-27T23:11:05.018Z,8.50
2022-09-27T23:13:34.034Z,8.50
2022-09-27T23:16:03.087Z,8.50
2022-09-27T23:18:31.009Z,8.50
2022-09-27T23:21:03.200Z,8.50
2022-09-27T23:23:31.644Z,8.50
2022-09-27T23:26:00.950Z,8.60
2022-09-27T23:28:31.524Z,8.60
2022-09-27T23:31:07.792Z,8.60
2022-09-27T23:33:36.051Z,8.60
2022-09-27T23:36:04.546Z,8.70
2022-09-27T23:38:32.412Z,8.70
2022-09-27T23:41:00.347Z,8.80
2022-09-27T23:43:29.782Z,8.80
2022-09-27T23:45:57.555Z,8.80
2022-09-27T23:48:25.592Z,8.90
2022-09-27T23:50:53.838Z,8.90
2022-09-27T23:53:22.332Z,9.00
2022-09-27T23:56:02.775Z,8.90
2022-09-27T23:58:33.463Z,9.00
